createdAt,value
2022-09-23T00:01:25.044Z,42.37
2022-09-23T00:04:27.714Z,45.83
2022-09-23T00:07:29.676Z,39.23
2022-09-23T00:10:31.853Z,40.93
2022-09-23T00:13:35.108Z,41.30
2022-09-23T00:16:38.291Z,39.57
2022-09-23T00:19:40.459Z,41.63
2022-09-23T00:22:42.499Z,36.13
2022-09-23T00:25:44.471Z,31.70
2022-09-23T00:28:47.664Z,31.53
2022-09-23T00:31:49.943Z,34.83
2022-09-23T00:34:52.675Z,32.60
2022-09-23T00:37:54.587Z,32.90
2022-09-23T00:40:58.351Z,32.83
2022-09-23T00:44:01.493Z,31.37
2022-09-23T00:47:03.813Z,29.00
2022-09-23T00:50:38.155Z,29.47
2022-09-23T00:53:41.219Z,30.57
2022-09-23T00:56:43.350Z,32.37
2022-09-23T00:59:45.572Z,33.77
2022-09-23T01:02:47.759Z,26.83
2022-09-23T01:05:50.922Z,27.17
2022-09-23T01:08:53.212Z,28.47
2022-09-23T01:12:28.946Z,28.93
2022-09-23T01:15:48.424Z,31.50
2022-09-23T01:19:24.015Z,30.63
2022-09-23T01:22:33.245Z,24.10
2022-09-23T01:25:41.499Z,30.20
2022-09-23T01:28:59.361Z,27.70
2022-09-23T01:32:13.601Z,28.50
2022-09-23T01:35:30.519Z,24.07
2022-09-23T01:38:36.034Z,31.50
2022-09-23T01:41:57.372Z,36.13
2022-09-23T01:45:14.924Z,35.03
2022-09-23T01:48:25.447Z,30.70
2022-09-23T01:51:34.218Z,29.47
2022-09-23T01:54:41.424Z,29.67
2022-09-23T01:57:48.868Z,31.57
2022-09-23T02:00:59.435Z,35.23
2022-09-23T02:04:08.530Z,32.37
2022-09-23T02:07:25.293Z,29.83
2022-09-23T02:10:56.619Z,27.47
2022-09-23T02:14:04.577Z,29.40
2022-09-23T02:17:13.067Z,32.60
2022-09-23T02:20:22.417Z,29.67
2022-09-23T02:23:40.096Z,27.63
2022-09-23T02:27:04.996Z,32.90
2022-09-23T02:30:12.971Z,32.10
2022-09-23T02:33:24.424Z,29.57
2022-09-23T02:36:54.647Z,27.97
2022-09-23T02:40:28.530Z,33.87
2022-09-23T02:43:51.945Z,32.70
2022-09-23T02:46:54.456Z,30.93
2022-09-23T02:49:56.656Z,28.10
2022-09-23T02:52:59.982Z,32.60
2022-09-23T02:56:13.037Z,35.30
2022-09-23T02:59:19.358Z,28.63
2022-09-23T03:02:26.556Z,30.33
2022-09-23T03:05:31.566Z,31.70
2022-09-23T03:08:50.945Z,32.70
2022-09-23T03:12:11.122Z,31.33
2022-09-23T03:15:30.364Z,34.37
2022-09-23T03:19:18.463Z,39.33
2022-09-23T03:22:30.263Z,35.20
2022-09-23T03:25:37.401Z,32.83
2022-09-23T03:28:43.693Z,34.97
2022-09-23T03:31:46.034Z,34.87
2022-09-23T03:34:52.028Z,25.63
2022-09-23T03:38:01.026Z,30.13
2022-09-23T03:41:04.195Z,37.47
2022-09-23T03:44:08.103Z,35.00
2022-09-23T03:47:12.404Z,33.37
2022-09-23T03:50:14.686Z,36.93
2022-09-23T03:53:18.938Z,28.83
2022-09-23T03:56:20.962Z,35.50
2022-09-23T03:59:23.520Z,34.37
2022-09-23T04:02:26.699Z,32.83
2022-09-23T04:05:28.951Z,37.33
2022-09-23T04:08:30.914Z,44.83
2022-09-23T04:11:33.003Z,36.53
2022-09-23T04:14:35.533Z,47.47
2022-09-23T04:17:37.826Z,37.23
2022-09-23T04:20:39.712Z,40.53
2022-09-23T04:23:42.076Z,41.03
2022-09-23T04:26:44.232Z,35.30
2022-09-23T04:29:46.326Z,37.90
2022-09-23T04:32:48.190Z,45.60
2022-09-23T04:35:53.459Z,36.37
2022-09-23T04:38:55.352Z,34.83
2022-09-23T04:41:57.750Z,37.37
2022-09-23T04:44:59.654Z,41.10
2022-09-23T04:48:02.274Z,38.07
2022-09-23T04:51:09.036Z,31.10
2022-09-23T04:54:13.783Z,40.13
2022-09-23T04:57:15.644Z,34.70
2022-09-23T05:00:18.149Z,43.20
2022-09-23T05:03:20.127Z,42.20
2022-09-23T05:06:22.810Z,40.37
2022-09-23T05:09:24.704Z,49.63
2022-09-23T05:12:26.785Z,40.37
2022-09-23T05:15:29.682Z,42.20
2022-09-23T05:18:33.311Z,39.93
2022-09-23T05:21:35.259Z,47.87
2022-09-23T05:24:37.676Z,28.37
2022-09-23T05:27:39.560Z,37.87
2022-09-23T05:30:41.652Z,33.50
2022-09-23T05:33:46.078Z,33.70
2022-09-23T05:36:48.118Z,45.40
2022-09-23T05:39:50.054Z,45.07
2022-09-23T05:42:52.589Z,31.07
2022-09-23T05:46:08.021Z,30.83
2022-09-23T05:49:12.777Z,42.60
2022-09-23T05:52:14.728Z,38.53
2022-09-23T05:55:16.845Z,35.90
2022-09-23T05:58:18.778Z,37.73
2022-09-23T06:01:26.062Z,36.13
2022-09-23T06:04:28.171Z,34.43
2022-09-23T06:07:31.777Z,45.80
2022-09-23T06:10:41.660Z,44.47
2022-09-23T06:13:43.775Z,40.13
2022-09-23T06:16:45.814Z,42.00
2022-09-23T06:19:47.878Z,41.40
2022-09-23T06:22:53.128Z,43.00
2022-09-23T06:26:01.268Z,48.33
2022-09-23T06:29:10.117Z,43.00
2022-09-23T06:32:12.274Z,43.57
2022-09-23T06:35:24.683Z,45.87
2022-09-23T06:38:30.570Z,34.87
2022-09-23T06:41:32.610Z,41.17
2022-09-23T06:44:34.932Z,31.33
2022-09-23T06:47:37.796Z,35.53
2022-09-23T06:50:39.880Z,35.40
2022-09-23T06:53:41.730Z,33.03
2022-09-23T06:56:47.417Z,30.60
2022-09-23T06:59:49.580Z,30.33
2022-09-23T07:02:52.450Z,30.80
2022-09-23T07:05:58.471Z,24.80
2022-09-23T07:09:01.107Z,28.63
2022-09-23T07:12:03.292Z,25.23
2022-09-23T07:15:05.906Z,25.08
2022-09-23T07:18:07.903Z,23.95
2022-09-23T07:21:19.184Z,21.00
2022-09-23T07:24:23.003Z,23.90
2022-09-23T07:27:26.460Z,24.13
2022-09-23T07:30:28.441Z,19.92
2022-09-23T07:33:33.063Z,12.88
2022-09-23T07:36:37.410Z,11.80
2022-09-23T07:39:42.382Z,13.52
2022-09-23T07:42:44.363Z,9.75
2022-09-23T07:45:47.098Z,11.52
2022-09-23T07:48:48.990Z,11.82
2022-09-23T07:51:51.412Z,11.95
2022-09-23T07:54:53.318Z,12.73
2022-09-23T07:57:55.537Z,10.52
2022-09-23T08:01:06.125Z,12.75
2022-09-23T08:04:14.262Z,11.05
2022-09-23T08:07:16.471Z,10.57
2022-09-23T08:10:21.055Z,11.18
2022-09-23T08:13:23.105Z,10.00
2022-09-23T08:16:25.331Z,8.98
2022-09-23T08:19:27.359Z,8.52
2022-09-23T08:22:29.807Z,9.80
2022-09-23T08:25:34.782Z,7.88
2022-09-23T08:28:37.197Z,8.45
2022-09-23T08:31:39.451Z,7.70
2022-09-23T08:34:42.210Z,8.52
2022-09-23T08:37:44.226Z,7.75
2022-09-23T08:40:49.576Z,8.05
2022-09-23T08:44:41.730Z,6.85
2022-09-23T08:48:02.309Z,8.32
2022-09-23T08:51:35.175Z,7.00
2022-09-23T08:54:37.297Z,6.85
2022-09-23T09:01:31.434Z,7.60
2022-09-23T09:04:42.963Z,7.18
2022-09-23T09:07:45.297Z,7.28
2022-09-23T09:10:47.429Z,8.57
2022-09-23T09:14:33.054Z,5.65
2022-09-23T09:18:04.710Z,4.28
2022-09-23T09:21:13.023Z,3.83
2022-09-23T09:24:27.809Z,4.43
2022-09-23T09:27:32.831Z,5.15
2022-09-23T09:30:36.428Z,4.22
2022-09-23T09:33:47.301Z,4.35
2022-09-23T09:37:11.482Z,4.95
2022-09-23T09:40:17.111Z,5.63
2022-09-23T09:43:23.598Z,5.07
2022-09-23T09:46:25.941Z,4.65
2022-09-23T09:49:40.791Z,4.35
2022-09-23T09:52:43.335Z,3.75
2022-09-23T09:55:48.357Z,3.78
2022-09-23T09:58:52.169Z,5.43
2022-09-23T10:02:22.351Z,3.10
2022-09-23T10:05:34.712Z,5.15
2022-09-23T10:08:37.326Z,2.55
2022-09-23T10:11:40.548Z,2.30
2022-09-23T10:14:43.078Z,2.30
2022-09-23T10:17:51.767Z,3.45
2022-09-23T10:21:08.416Z,4.13
2022-09-23T10:24:23.145Z,3.05
2022-09-23T10:27:31.504Z,2.40
2022-09-23T10:30:35.499Z,2.88
2022-09-23T10:34:20.009Z,2.17
2022-09-23T10:37:37.576Z,2.22
2022-09-23T10:41:01.816Z,1.77
2022-09-23T10:44:58.089Z,1.80
2022-09-23T10:48:18.725Z,2.30
2022-09-23T10:51:46.838Z,1.50
2022-09-23T10:55:28.133Z,2.63
2022-09-23T10:58:51.161Z,1.50
2022-09-23T11:02:07.905Z,5.15
2022-09-23T11:05:37.766Z,1.88
2022-09-23T11:09:07.483Z,5.03
2022-09-23T11:12:12.589Z,2.67
2022-09-23T11:15:37.634Z,1.85
2022-09-23T11:19:00.686Z,2.03
2022-09-23T11:22:11.333Z,2.13
2022-09-23T11:25:37.735Z,10.35
2022-09-23T11:29:02.540Z,2.58
2022-09-23T11:32:04.884Z,4.97
2022-09-23T11:35:15.245Z,2.00
2022-09-23T11:38:26.207Z,8.55
2022-09-23T11:41:31.495Z,2.22
2022-09-23T11:44:39.619Z,3.30
2022-09-23T11:47:52.382Z,2.70
2022-09-23T11:51:02.844Z,1.50
2022-09-23T11:54:11.136Z,2.17
2022-09-23T11:57:43.978Z,1.70
2022-09-23T12:01:33.044Z,1.70
2022-09-23T12:04:56.246Z,1.83
2022-09-23T12:08:17.908Z,6.75
2022-09-23T12:11:44.850Z,2.10
2022-09-23T12:15:25.747Z,1.88
2022-09-23T12:18:55.488Z,2.00
2022-09-23T12:22:17.624Z,2.40
2022-09-23T12:25:46.434Z,2.30
2022-09-23T12:28:52.154Z,8.02
2022-09-23T12:31:54.641Z,2.35
2022-09-23T12:34:56.668Z,1.80
2022-09-23T12:38:01.281Z,1.70
2022-09-23T12:41:29.506Z,1.92
2022-09-23T12:44:39.218Z,4.32
2022-09-23T12:47:41.332Z,5.22
2022-09-23T12:50:50.838Z,5.07
2022-09-23T12:54:21.816Z,12.40
2022-09-23T12:57:36.228Z,10.57
2022-09-23T13:00:38.148Z,3.92
2022-09-23T13:04:16.881Z,2.67
2022-09-23T13:07:29.987Z,2.45
2022-09-23T13:10:38.384Z,2.45
2022-09-23T13:13:45.989Z,4.00
2022-09-23T13:16:48.665Z,2.40
2022-09-23T13:20:03.412Z,2.15
2022-09-23T13:24:03.992Z,9.60
2022-09-23T13:27:12.113Z,3.78
2022-09-23T13:30:14.226Z,2.60
2022-09-23T13:33:42.672Z,2.13
2022-09-23T13:36:46.555Z,1.70
2022-09-23T13:39:48.836Z,1.90
2022-09-23T13:43:01.337Z,4.57
2022-09-23T13:46:09.139Z,2.78
2022-09-23T13:49:24.451Z,4.60
2022-09-23T13:52:30.039Z,2.55
2022-09-23T13:55:37.486Z,2.03
2022-09-23T13:58:40.199Z,3.78
2022-09-23T14:01:42.273Z,2.67
2022-09-23T14:04:44.639Z,1.80
2022-09-23T14:07:47.550Z,2.20
2022-09-23T14:10:49.691Z,3.55
2022-09-23T14:13:55.115Z,2.78
2022-09-23T14:16:58.001Z,3.25
2022-09-23T14:20:00.138Z,3.47
2022-09-23T14:23:07.122Z,3.38
2022-09-23T14:26:09.396Z,2.08
2022-09-23T14:29:18.691Z,2.13
2022-09-23T14:32:24.794Z,2.17
2022-09-23T14:35:38.669Z,4.18
2022-09-23T14:38:52.808Z,5.07
2022-09-23T14:41:54.944Z,3.45
2022-09-23T14:44:57.141Z,4.75
2022-09-23T14:48:02.281Z,2.83
2022-09-23T14:51:11.902Z,3.03
2022-09-23T14:54:35.998Z,3.38
2022-09-23T14:57:44.548Z,3.00
2022-09-23T15:01:00.168Z,3.55
2022-09-23T15:04:14.510Z,4.32
2022-09-23T15:07:20.395Z,20.88
2022-09-23T15:10:33.649Z,21.50
2022-09-23T15:13:41.794Z,14.70
2022-09-23T15:16:44.070Z,9.82
2022-09-23T15:19:52.509Z,11.02
2022-09-23T15:22:55.927Z,9.30
2022-09-23T15:25:57.841Z,7.15
2022-09-23T15:28:59.894Z,8.40
2022-09-23T15:32:02.057Z,4.47
2022-09-23T15:35:05.290Z,4.95
2022-09-23T15:38:09.616Z,9.25
2022-09-23T15:41:14.299Z,15.63
2022-09-23T15:44:20.403Z,13.38
2022-09-23T15:47:22.941Z,11.30
2022-09-23T15:50:24.897Z,15.35
2022-09-23T15:53:28.254Z,16.48
2022-09-23T15:56:30.235Z,11.80
2022-09-23T15:59:32.793Z,14.50
2022-09-23T16:02:34.941Z,9.18
2022-09-23T16:05:39.068Z,19.52
2022-09-23T16:08:42.367Z,9.20
2022-09-23T16:11:49.656Z,9.25
2022-09-23T16:14:51.592Z,14.05
2022-09-23T16:17:54.654Z,12.45
2022-09-23T16:20:59.067Z,17.88
2022-09-23T16:24:01.629Z,22.75
2022-09-23T16:27:07.767Z,33.13
2022-09-23T16:30:10.791Z,45.55
2022-09-23T16:33:12.773Z,76.88
2022-09-23T16:36:24.102Z,81.38
2022-09-23T16:39:26.110Z,76.13
2022-09-23T16:42:29.027Z,52.10
2022-09-23T16:45:32.065Z,50.30
2022-09-23T16:48:34.484Z,35.80
2022-09-23T16:51:38.315Z,45.67
2022-09-23T16:54:42.190Z,178.90
2022-09-23T16:57:44.087Z,135.32
2022-09-23T17:01:04.807Z,175.87
2022-09-23T17:04:08.257Z,161.00
2022-09-23T17:07:10.888Z,159.97
2022-09-23T17:10:12.748Z,125.97
2022-09-23T17:13:16.055Z,86.00
2022-09-23T17:16:29.861Z,91.70
2022-09-23T17:19:33.851Z,73.00
2022-09-23T17:22:35.917Z,57.43
2022-09-23T17:25:38.052Z,40.20
2022-09-23T17:28:39.939Z,35.20
2022-09-23T17:31:42.087Z,28.37
2022-09-23T17:34:44.817Z,27.80
2022-09-23T17:37:47.635Z,22.83
2022-09-23T17:40:54.291Z,20.20
2022-09-23T17:43:58.533Z,24.60
2022-09-23T17:47:00.868Z,24.53
2022-09-23T17:50:03.100Z,21.30
2022-09-23T17:53:05.143Z,23.83
2022-09-23T17:56:12.308Z,24.80
2022-09-23T17:59:14.256Z,28.27
2022-09-23T18:02:16.780Z,26.80
2022-09-23T18:05:18.803Z,28.43
2022-09-23T18:08:21.353Z,23.77
2022-09-23T18:11:26.126Z,24.17
2022-09-23T18:14:28.951Z,19.10
2022-09-23T18:17:30.840Z,24.40
2022-09-23T18:20:33.244Z,27.07
2022-09-23T18:23:36.664Z,18.20
2022-09-23T18:26:38.782Z,16.10
2022-09-23T18:29:40.708Z,14.03
2022-09-23T18:32:43.590Z,14.40
2022-09-23T18:35:45.534Z,14.33
2022-09-23T18:38:48.457Z,18.17
2022-09-23T18:41:50.328Z,14.63
2022-09-23T18:44:56.319Z,12.63
2022-09-23T18:48:16.892Z,11.37
2022-09-23T18:51:21.154Z,9.77
2022-09-23T18:54:24.782Z,6.57
2022-09-23T18:57:27.073Z,8.67
2022-09-23T19:00:29.269Z,12.50
2022-09-23T19:03:31.843Z,9.00
2022-09-23T19:06:35.069Z,11.33
2022-09-23T19:09:37.151Z,7.57
2022-09-23T19:12:38.996Z,8.23
2022-09-23T19:15:54.372Z,12.70
2022-09-23T19:19:02.133Z,13.03
2022-09-23T19:22:04.483Z,12.60
2022-09-23T19:25:07.655Z,11.67
2022-09-23T19:28:10.132Z,13.07
2022-09-23T19:31:16.730Z,13.30
2022-09-23T19:34:23.927Z,16.67
2022-09-23T19:37:26.057Z,10.67
2022-09-23T19:40:31.130Z,13.10
2022-09-23T19:43:33.126Z,18.20
2022-09-23T19:46:37.803Z,30.90
2022-09-23T19:49:39.872Z,23.13
2022-09-23T19:52:41.963Z,24.17
2022-09-23T19:55:44.306Z,22.27
2022-09-23T19:58:48.941Z,36.67
2022-09-23T20:01:51.017Z,43.33
2022-09-23T20:04:53.140Z,29.77
2022-09-23T20:07:56.238Z,20.57
2022-09-23T20:10:58.370Z,26.80
2022-09-23T20:14:04.812Z,27.00
2022-09-23T20:17:10.226Z,44.30
2022-09-23T20:20:13.669Z,43.30
2022-09-23T20:23:15.738Z,51.20
2022-09-23T20:26:36.152Z,33.73
2022-09-23T20:29:38.374Z,56.97
2022-09-23T20:32:44.027Z,50.60
2022-09-23T20:35:53.494Z,40.87
2022-09-23T20:38:56.819Z,32.27
2022-09-23T20:42:00.028Z,43.30
2022-09-23T20:45:02.233Z,31.77
2022-09-23T20:48:05.917Z,31.77
2022-09-23T20:51:08.497Z,33.10
2022-09-23T20:54:12.286Z,32.67
2022-09-23T20:57:16.160Z,36.13
2022-09-23T21:00:18.531Z,31.80
2022-09-23T21:03:21.603Z,33.10
2022-09-23T21:06:25.150Z,36.30
2022-09-23T21:09:28.887Z,38.00
2022-09-23T21:12:31.700Z,34.50
2022-09-23T21:15:36.484Z,44.07
2022-09-23T21:18:39.075Z,36.90
2022-09-23T21:21:40.974Z,38.60
2022-09-23T21:25:25.585Z,47.87
2022-09-23T21:28:05.067Z,39.17
2022-09-23T21:31:10.059Z,37.30
2022-09-23T21:34:12.709Z,33.90
2022-09-23T21:37:14.912Z,37.70
2022-09-23T21:40:35.368Z,40.67
2022-09-23T21:43:40.065Z,35.70
2022-09-23T21:46:42.114Z,36.27
2022-09-23T21:49:48.485Z,32.50
2022-09-23T21:52:53.503Z,32.40
2022-09-23T21:56:05.334Z,30.13
2022-09-23T21:59:10.361Z,39.13
2022-09-23T22:02:12.418Z,38.40
2022-09-23T22:05:14.385Z,32.70
2022-09-23T22:08:16.467Z,33.37
2022-09-23T22:11:39.232Z,32.47
2022-09-23T22:14:43.331Z,31.03
2022-09-23T22:17:48.080Z,33.03
2022-09-23T22:20:50.474Z,33.73
2022-09-23T22:23:57.091Z,31.63
2022-09-23T22:26:59.232Z,28.50
2022-09-23T22:30:19.761Z,32.37
2022-09-23T22:33:22.014Z,38.10
2022-09-23T22:36:24.027Z,33.97
2022-09-23T22:39:28.081Z,39.93
2022-09-23T22:42:30.968Z,42.83
2022-09-23T22:45:33.091Z,41.73
2022-09-23T22:48:34.972Z,41.03
2022-09-23T22:51:39.062Z,38.23
2022-09-23T22:54:41.517Z,38.17
2022-09-23T22:57:43.986Z,36.47
2022-09-23T23:00:46.223Z,35.63
2022-09-23T23:03:49.559Z,34.03
2022-09-23T23:06:52.072Z,33.90
2022-09-23T23:09:54.285Z,34.80
2022-09-23T23:12:56.814Z,31.57
2022-09-23T23:16:04.921Z,28.23
2022-09-23T23:19:12.009Z,28.53
2022-09-23T23:22:14.069Z,31.13
2022-09-23T23:25:16.124Z,29.13
2022-09-23T23:28:18.181Z,30.67
2022-09-23T23:31:22.336Z,30.10
2022-09-23T23:34:24.534Z,27.53
2022-09-23T23:37:28.214Z,27.23
2022-09-23T23:40:30.305Z,28.00
2022-09-23T23:43:34.054Z,30.63
2022-09-23T23:46:37.493Z,35.90
2022-09-23T23:49:39.575Z,37.93
2022-09-23T23:52:41.728Z,35.27
2022-09-23T23:55:43.847Z,34.70
2022-09-23T23:58:46.396Z,29.40
